This is the latest recevied weather packets stored in our database for station/object KJ6APE. If no packets are shown the sender has not sent any weather packets the latest 10 day(s).
| Time | Temp. | Humidity | Pressure | Rain* | Wind** | Luminosity | Snow |
|---|---|---|---|---|---|---|---|
| 1777943346 | 16.11° C | 66% | 1015.3 hPa | 0 mm | - | 82 W/m² | - |
| 1777943042 | 16.11° C | 65% | 1015.4 hPa | 0 mm | - | 111 W/m² | - |
| 1777942738 | 16.11° C | 66% | 1015.1 hPa | 0 mm | - | 93 W/m² | - |
| 1777942435 | 16.11° C | 66% | 1015 hPa | 0 mm | - | 96 W/m² | - |
| 1777942133 | 16.11° C | 66% | 1015.1 hPa | 0 mm | - | 94 W/m² | - |
| 1777941829 | 16.11° C | 65% | 1015.2 hPa | 0 mm | - | 106 W/m² | - |
| 1777941527 | 16.11° C | 66% | 1015 hPa | 0 mm | - | 116 W/m² | - |
| 1777941224 | 16.11° C | 65% | 1015.2 hPa | 0 mm | - | 107 W/m² | - |
| 1777940920 | 16.67° C | 65% | 1014.9 hPa | 0 mm | - | 75 W/m² | - |
| 1777940617 | 16.67° C | 62% | 1015.3 hPa | 0 mm | - | 75 W/m² | - |
| 1777940315 | 16.67° C | 62% | 1015.1 hPa | 0 mm | - | 80 W/m² | - |
| 1777940012 | 16.67° C | 60% | 1015 hPa | 0 mm | - | 80 W/m² | - |
| 1777939709 | 17.22° C | 59% | 1014.9 hPa | 0 mm | - | 77 W/m² | - |
| 1777939407 | 17.22° C | 58% | 1015.2 hPa | 0 mm | - | 82 W/m² | - |
| 1777939103 | 17.22° C | 58% | 1015 hPa | 0 mm | - | 92 W/m² | - |
| 1777938800 | 17.22° C | 56% | 1015.1 hPa | 0 mm | - | 78 W/m² | - |
| 1777938497 | 17.22° C | 54% | 1015.2 hPa | 0 mm | - | 67 W/m² | - |
| 1777938195 | 17.22° C | 52% | 1015.1 hPa | 0 mm | - | 79 W/m² | - |
| 1777937891 | 17.78° C | 50% | 1015 hPa | 0 mm | - | 84 W/m² | - |
| 1777937587 | 17.78° C | 48% | 1015 hPa | 0 mm | - | 111 W/m² | - |
| 1777937283 | 17.78° C | 50% | 1014.8 hPa | 0 mm | - | 127 W/m² | - |
| 1777936981 | 18.33° C | 49% | 1015 hPa | 0 mm | - | 154 W/m² | - |
| 1777936678 | 18.33° C | 52% | 1014.9 hPa | 0 mm | - | 202 W/m² | - |
| 1777936374 | 18.33° C | 50% | 1015.1 hPa | 0 mm | - | 204 W/m² | - |
| 1777936070 | 18.33° C | 50% | 1014.9 hPa | 0 mm | - | 254 W/m² | - |
* Rain latest hour (hover to see other rain measurements)
** Current wind speed in m/s (hover to see current wind gust speed)